sensor_id;sensor_type;location;lat;lon;timestamp;pressure;altitude;pressure_sealevel;temperature;humidity
43804;BME280;29430;52.924;-2.388;2022-12-29T00:04:03;96441.75;;;8.02;90.79
43804;BME280;29430;52.924;-2.388;2022-12-29T00:09:00;96453.63;;;8.01;90.93
43804;BME280;29430;52.924;-2.388;2022-12-29T00:13:53;96464.13;;;8.02;91.36
43804;BME280;29430;52.924;-2.388;2022-12-29T00:19:04;96461.16;;;8.04;91.22
43804;BME280;29430;52.924;-2.388;2022-12-29T00:23:56;96450.13;;;8.00;91.41
43804;BME280;29430;52.924;-2.388;2022-12-29T00:29:00;96447.72;;;7.99;91.80
43804;BME280;29430;52.924;-2.388;2022-12-29T00:34:11;96437.47;;;7.96;91.66
43804;BME280;29430;52.924;-2.388;2022-12-29T00:39:21;96411.84;;;7.93;91.99
43804;BME280;29430;52.924;-2.388;2022-12-29T00:44:32;96412.94;;;7.92;91.99
43804;BME280;29430;52.924;-2.388;2022-12-29T00:49:24;96433.16;;;7.95;93.05
43804;BME280;29430;52.924;-2.388;2022-12-29T00:54:21;96408.34;;;7.93;92.90
43804;BME280;29430;52.924;-2.388;2022-12-29T00:59:14;96416.16;;;7.94;93.19
43804;BME280;29430;52.924;-2.388;2022-12-29T01:04:06;96415.88;;;7.96;93.78
43804;BME280;29430;52.924;-2.388;2022-12-29T01:08:58;96410.50;;;7.96;93.30
43804;BME280;29430;52.924;-2.388;2022-12-29T01:14:08;96418.88;;;7.94;93.02
43804;BME280;29430;52.924;-2.388;2022-12-29T01:19:00;96403.25;;;7.91;93.38
43804;BME280;29430;52.924;-2.388;2022-12-29T01:23:52;96414.59;;;7.88;94.90
43804;BME280;29430;52.924;-2.388;2022-12-29T01:28:44;96403.03;;;7.82;95.52
43804;BME280;29430;52.924;-2.388;2022-12-29T01:33:35;96398.75;;;7.76;95.84
43804;BME280;29430;52.924;-2.388;2022-12-29T01:38:27;96389.34;;;7.74;96.62
43804;BME280;29430;52.924;-2.388;2022-12-29T01:43:19;96380.72;;;7.71;96.57
43804;BME280;29430;52.924;-2.388;2022-12-29T01:48:11;96394.72;;;7.74;97.61
43804;BME280;29430;52.924;-2.388;2022-12-29T01:53:11;96402.53;;;7.75;98.16
43804;BME280;29430;52.924;-2.388;2022-12-29T01:58:06;96408.22;;;7.74;100.00
43804;BME280;29430;52.924;-2.388;2022-12-29T02:02:58;96427.38;;;7.72;100.00
43804;BME280;29430;52.924;-2.388;2022-12-29T02:07:50;96424.50;;;7.63;100.00
43804;BME280;29430;52.924;-2.388;2022-12-29T02:12:43;96455.56;;;7.56;100.00
43804;BME280;29430;52.924;-2.388;2022-12-29T02:28:37;96521.19;;;7.30;100.00
43804;BME280;29430;52.924;-2.388;2022-12-29T02:33:35;96551.97;;;7.19;100.00
43804;BME280;29430;52.924;-2.388;2022-12-29T02:44:16;96569.53;;;7.06;100.00
43804;BME280;29430;52.924;-2.388;2022-12-29T02:49:19;96579.50;;;7.01;100.00
43804;BME280;29430;52.924;-2.388;2022-12-29T02:54:11;96588.38;;;6.96;100.00
43804;BME280;29430;52.924;-2.388;2022-12-29T02:59:22;96593.50;;;6.87;100.00
43804;BME280;29430;52.924;-2.388;2022-12-29T03:04:35;96610.22;;;6.84;100.00
43804;BME280;29430;52.924;-2.388;2022-12-29T03:09:45;96621.53;;;6.81;100.00
43804;BME280;29430;52.924;-2.388;2022-12-29T03:14:58;96633.66;;;6.78;100.00
43804;BME280;29430;52.924;-2.388;2022-12-29T03:20:16;96639.88;;;6.74;100.00
43804;BME280;29430;52.924;-2.388;2022-12-29T03:25:35;96648.19;;;6.67;100.00
43804;BME280;29430;52.924;-2.388;2022-12-29T03:30:30;96660.59;;;6.63;100.00
43804;BME280;29430;52.924;-2.388;2022-12-29T03:35:25;96671.34;;;6.58;100.00
43804;BME280;29430;52.924;-2.388;2022-12-29T03:40:20;96684.28;;;6.51;100.00
43804;BME280;29430;52.924;-2.388;2022-12-29T03:45:14;96697.44;;;6.42;100.00
43804;BME280;29430;52.924;-2.388;2022-12-29T03:50:11;96699.31;;;6.36;100.00
43804;BME280;29430;52.924;-2.388;2022-12-29T03:55:02;96705.78;;;6.35;100.00
43804;BME280;29430;52.924;-2.388;2022-12-29T03:59:54;96724.06;;;6.33;100.00
43804;BME280;29430;52.924;-2.388;2022-12-29T04:04:46;96724.31;;;6.32;100.00
43804;BME280;29430;52.924;-2.388;2022-12-29T04:09:38;96734.81;;;6.28;100.00
43804;BME280;29430;52.924;-2.388;2022-12-29T04:14:30;96747.72;;;6.26;100.00
43804;BME280;29430;52.924;-2.388;2022-12-29T04:19:21;96770.31;;;6.25;100.00
43804;BME280;29430;52.924;-2.388;2022-12-29T04:24:13;96768.16;;;6.22;100.00
43804;BME280;29430;52.924;-2.388;2022-12-29T04:29:05;96774.59;;;6.21;100.00
43804;BME280;29430;52.924;-2.388;2022-12-29T04:33:57;96781.59;;;6.17;100.00
43804;BME280;29430;52.924;-2.388;2022-12-29T04:38:49;96791.81;;;6.15;100.00
43804;BME280;29430;52.924;-2.388;2022-12-29T04:43:40;96798.75;;;6.05;100.00
43804;BME280;29430;52.924;-2.388;2022-12-29T04:48:32;96808.69;;;6.00;100.00
43804;BME280;29430;52.924;-2.388;2022-12-29T04:53:25;96820.72;;;5.92;100.00
43804;BME280;29430;52.924;-2.388;2022-12-29T04:58:17;96828.47;;;5.88;100.00
43804;BME280;29430;52.924;-2.388;2022-12-29T05:03:13;96833.03;;;5.83;100.00
43804;BME280;29430;52.924;-2.388;2022-12-29T05:08:05;96848.56;;;5.76;100.00
43804;BME280;29430;52.924;-2.388;2022-12-29T05:12:57;96861.47;;;5.73;100.00
43804;BME280;29430;52.924;-2.388;2022-12-29T05:17:49;96872.50;;;5.72;100.00
43804;BME280;29430;52.924;-2.388;2022-12-29T05:22:40;96872.22;;;5.73;100.00
43804;BME280;29430;52.924;-2.388;2022-12-29T05:27:32;96867.41;;;5.76;100.00
43804;BME280;29430;52.924;-2.388;2022-12-29T05:32:24;96875.22;;;5.77;100.00
43804;BME280;29430;52.924;-2.388;2022-12-29T05:37:16;96883.81;;;5.79;100.00
43804;BME280;29430;52.924;-2.388;2022-12-29T05:42:08;96891.09;;;5.79;100.00
43804;BME280;29430;52.924;-2.388;2022-12-29T05:47:00;96903.16;;;5.76;100.00
43804;BME280;29430;52.924;-2.388;2022-12-29T05:51:52;96909.88;;;5.73;100.00
43804;BME280;29430;52.924;-2.388;2022-12-29T05:56:44;96923.84;;;5.70;100.00
43804;BME280;29430;52.924;-2.388;2022-12-29T06:01:36;96930.28;;;5.69;100.00
43804;BME280;29430;52.924;-2.388;2022-12-29T06:06:27;96942.41;;;5.72;100.00
43804;BME280;29430;52.924;-2.388;2022-12-29T06:11:19;96952.94;;;5.79;100.00
43804;BME280;29430;52.924;-2.388;2022-12-29T06:16:11;96949.50;;;5.83;100.00
43804;BME280;29430;52.924;-2.388;2022-12-29T06:21:04;96960.28;;;5.88;100.00
43804;BME280;29430;52.924;-2.388;2022-12-29T06:25:56;96961.13;;;5.89;100.00
43804;BME280;29430;52.924;-2.388;2022-12-29T06:30:48;96974.25;;;5.85;100.00
43804;BME280;29430;52.924;-2.388;2022-12-29T06:35:41;96985.00;;;5.85;100.00
43804;BME280;29430;52.924;-2.388;2022-12-29T06:40:33;97007.03;;;5.82;100.00
43804;BME280;29430;52.924;-2.388;2022-12-29T06:45:25;97016.44;;;5.80;100.00
43804;BME280;29430;52.924;-2.388;2022-12-29T06:50:17;97021.06;;;5.84;100.00
43804;BME280;29430;52.924;-2.388;2022-12-29T06:55:08;97026.47;;;5.89;100.00
43804;BME280;29430;52.924;-2.388;2022-12-29T07:00:01;97021.13;;;5.95;100.00
43804;BME280;29430;52.924;-2.388;2022-12-29T07:04:52;97041.94;;;5.99;100.00
43804;BME280;29430;52.924;-2.388;2022-12-29T07:09:45;97050.31;;;6.03;100.00
43804;BME280;29430;52.924;-2.388;2022-12-29T07:14:36;97052.75;;;6.04;100.00
43804;BME280;29430;52.924;-2.388;2022-12-29T07:19:33;97063.53;;;6.04;100.00
43804;BME280;29430;52.924;-2.388;2022-12-29T07:24:25;97068.91;;;6.04;100.00
43804;BME280;29430;52.924;-2.388;2022-12-29T07:29:17;97081.84;;;6.07;100.00
43804;BME280;29430;52.924;-2.388;2022-12-29T07:34:09;97081.09;;;6.12;100.00
43804;BME280;29430;52.924;-2.388;2022-12-29T07:39:01;97098.34;;;6.16;100.00
43804;BME280;29430;52.924;-2.388;2022-12-29T07:43:53;97095.13;;;6.19;100.00
43804;BME280;29430;52.924;-2.388;2022-12-29T07:48:45;97106.47;;;6.21;100.00
43804;BME280;29430;52.924;-2.388;2022-12-29T07:53:37;97131.00;;;6.25;100.00
43804;BME280;29430;52.924;-2.388;2022-12-29T07:58:28;97132.88;;;6.24;100.00
43804;BME280;29430;52.924;-2.388;2022-12-29T08:03:20;97147.41;;;6.23;100.00
43804;BME280;29430;52.924;-2.388;2022-12-29T08:08:13;97151.66;;;6.19;100.00
43804;BME280;29430;52.924;-2.388;2022-12-29T08:13:04;97147.59;;;6.17;100.00
43804;BME280;29430;52.924;-2.388;2022-12-29T08:17:56;97166.38;;;6.12;100.00
43804;BME280;29430;52.924;-2.388;2022-12-29T08:22:48;97171.69;;;6.06;100.00
43804;BME280;29430;52.924;-2.388;2022-12-29T08:27:40;97182.91;;;5.98;100.00
43804;BME280;29430;52.924;-2.388;2022-12-29T08:32:31;97183.88;;;5.92;100.00
43804;BME280;29430;52.924;-2.388;2022-12-29T08:37:23;97186.00;;;5.90;100.00
43804;BME280;29430;52.924;-2.388;2022-12-29T08:42:21;97206.41;;;5.86;100.00
43804;BME280;29430;52.924;-2.388;2022-12-29T08:47:13;97205.78;;;5.79;100.00
43804;BME280;29430;52.924;-2.388;2022-12-29T08:52:05;97210.00;;;5.74;100.00
43804;BME280;29430;52.924;-2.388;2022-12-29T08:56:57;97209.75;;;5.76;100.00
43804;BME280;29430;52.924;-2.388;2022-12-29T09:01:48;97215.38;;;5.74;100.00
43804;BME280;29430;52.924;-2.388;2022-12-29T09:06:40;97229.91;;;5.73;100.00
43804;BME280;29430;52.924;-2.388;2022-12-29T09:11:32;97234.72;;;5.71;100.00
43804;BME280;29430;52.924;-2.388;2022-12-29T09:16:24;97235.78;;;5.70;100.00
43804;BME280;29430;52.924;-2.388;2022-12-29T09:21:16;97238.47;;;5.70;100.00
43804;BME280;29430;52.924;-2.388;2022-12-29T09:26:08;97238.78;;;5.74;100.00
43804;BME280;29430;52.924;-2.388;2022-12-29T09:31:00;97246.91;;;5.79;100.00
43804;BME280;29430;52.924;-2.388;2022-12-29T09:35:57;97260.28;;;5.91;100.00
43804;BME280;29430;52.924;-2.388;2022-12-29T09:40:52;97257.59;;;5.91;98.43
43804;BME280;29430;52.924;-2.388;2022-12-29T09:45:45;97266.78;;;5.95;98.10
43804;BME280;29430;52.924;-2.388;2022-12-29T09:50:37;97274.22;;;6.05;97.80
43804;BME280;29430;52.924;-2.388;2022-12-29T09:55:40;97286.56;;;6.23;97.16
43804;BME280;29430;52.924;-2.388;2022-12-29T10:00:37;97282.91;;;6.56;95.30
43804;BME280;29430;52.924;-2.388;2022-12-29T10:10:59;97289.81;;;6.69;92.79
43804;BME280;29430;52.924;-2.388;2022-12-29T10:26:46;97308.03;;;7.16;90.72
43804;BME280;29430;52.924;-2.388;2022-12-29T10:31:59;97321.00;;;7.20;89.30
43804;BME280;29430;52.924;-2.388;2022-12-29T10:37:00;97321.25;;;7.18;88.01
43804;BME280;29430;52.924;-2.388;2022-12-29T10:46:57;97339.63;;;7.21;87.93
43804;BME280;29430;52.924;-2.388;2022-12-29T10:51:54;97349.66;;;7.26;87.45
43804;BME280;29430;52.924;-2.388;2022-12-29T10:57:03;97347.31;;;7.34;88.24
43804;BME280;29430;52.924;-2.388;2022-12-29T11:07:01;97335.72;;;7.66;84.87
43804;BME280;29430;52.924;-2.388;2022-12-29T11:11:53;97331.94;;;7.67;84.83
43804;BME280;29430;52.924;-2.388;2022-12-29T11:16:56;97340.81;;;7.63;84.73
43804;BME280;29430;52.924;-2.388;2022-12-29T11:21:48;97342.59;;;7.52;84.92
43804;BME280;29430;52.924;-2.388;2022-12-29T11:26:43;97339.06;;;7.46;84.45
43804;BME280;29430;52.924;-2.388;2022-12-29T11:31:53;97336.13;;;7.48;85.13
43804;BME280;29430;52.924;-2.388;2022-12-29T11:36:47;97330.38;;;7.39;83.07
43804;BME280;29430;52.924;-2.388;2022-12-29T11:41:40;97339.72;;;7.31;84.22
43804;BME280;29430;52.924;-2.388;2022-12-29T11:46:34;97345.84;;;7.22;84.32
43804;BME280;29430;52.924;-2.388;2022-12-29T11:51:39;97349.84;;;7.19;85.42
43804;BME280;29430;52.924;-2.388;2022-12-29T11:56:37;97356.88;;;7.20;86.67
43804;BME280;29430;52.924;-2.388;2022-12-29T12:01:36;97358.25;;;7.23;86.06
43804;BME280;29430;52.924;-2.388;2022-12-29T12:06:32;97355.63;;;7.28;85.84
43804;BME280;29430;52.924;-2.388;2022-12-29T12:11:34;97358.66;;;7.37;86.68
43804;BME280;29430;52.924;-2.388;2022-12-29T12:16:37;97357.13;;;7.46;84.72
43804;BME280;29430;52.924;-2.388;2022-12-29T12:21:38;97360.16;;;7.55;84.48
43804;BME280;29430;52.924;-2.388;2022-12-29T12:26:41;97363.81;;;7.70;83.78
43804;BME280;29430;52.924;-2.388;2022-12-29T12:31:48;97369.06;;;7.87;82.72
43804;BME280;29430;52.924;-2.388;2022-12-29T12:52:16;97382.28;;;7.89;83.40
43804;BME280;29430;52.924;-2.388;2022-12-29T13:02:34;97383.66;;;7.86;82.26
43804;BME280;29430;52.924;-2.388;2022-12-29T13:28:25;97383.94;;;7.90;77.90
43804;BME280;29430;52.924;-2.388;2022-12-29T13:38:36;97375.84;;;7.90;78.27
43804;BME280;29430;52.924;-2.388;2022-12-29T13:43:31;97365.53;;;7.82;77.63
43804;BME280;29430;52.924;-2.388;2022-12-29T13:48:35;97377.03;;;7.72;77.96
43804;BME280;29430;52.924;-2.388;2022-12-29T13:58:37;97369.16;;;7.65;78.71
43804;BME280;29430;52.924;-2.388;2022-12-29T14:03:50;97384.47;;;7.60;80.00
43804;BME280;29430;52.924;-2.388;2022-12-29T14:08:44;97394.72;;;7.58;80.04
43804;BME280;29430;52.924;-2.388;2022-12-29T14:13:40;97411.13;;;7.51;78.35
43804;BME280;29430;52.924;-2.388;2022-12-29T14:18:34;97425.31;;;7.41;79.04
43804;BME280;29430;52.924;-2.388;2022-12-29T14:23:44;97431.97;;;7.33;80.00
43804;BME280;29430;52.924;-2.388;2022-12-29T14:28:44;97448.34;;;7.27;80.58
43804;BME280;29430;52.924;-2.388;2022-12-29T14:33:36;97449.59;;;7.19;81.23
43804;BME280;29430;52.924;-2.388;2022-12-29T14:38:29;97443.91;;;7.15;82.05
43804;BME280;29430;52.924;-2.388;2022-12-29T14:43:24;97455.75;;;7.14;82.52
43804;BME280;29430;52.924;-2.388;2022-12-29T14:48:32;97463.53;;;7.11;82.97
43804;BME280;29430;52.924;-2.388;2022-12-29T14:53:45;97479.38;;;7.07;83.45
43804;BME280;29430;52.924;-2.388;2022-12-29T14:59:01;97498.19;;;7.02;83.83
43804;BME280;29430;52.924;-2.388;2022-12-29T15:03:59;97507.59;;;6.99;83.73
43804;BME280;29430;52.924;-2.388;2022-12-29T15:09:26;97523.13;;;6.92;83.63
43804;BME280;29430;52.924;-2.388;2022-12-29T15:14:47;97537.59;;;6.86;83.39
43804;BME280;29430;52.924;-2.388;2022-12-29T15:19:40;97549.69;;;6.84;83.87
43804;BME280;29430;52.924;-2.388;2022-12-29T15:24:32;97560.16;;;6.80;83.30
43804;BME280;29430;52.924;-2.388;2022-12-29T15:29:37;97562.50;;;6.76;83.41
43804;BME280;29430;52.924;-2.388;2022-12-29T15:34:30;97575.66;;;6.73;83.29
43804;BME280;29430;52.924;-2.388;2022-12-29T15:39:30;97585.63;;;6.72;83.17
43804;BME280;29430;52.924;-2.388;2022-12-29T15:44:29;97582.34;;;6.70;82.42
43804;BME280;29430;52.924;-2.388;2022-12-29T15:49:23;97577.44;;;6.67;83.28
43804;BME280;29430;52.924;-2.388;2022-12-29T15:54:22;97594.59;;;6.61;83.15
43804;BME280;29430;52.924;-2.388;2022-12-29T15:59:27;97608.47;;;6.53;82.84
43804;BME280;29430;52.924;-2.388;2022-12-29T16:04:20;97626.63;;;6.45;84.35
43804;BME280;29430;52.924;-2.388;2022-12-29T16:09:16;97637.91;;;6.42;84.30
43804;BME280;29430;52.924;-2.388;2022-12-29T16:14:25;97630.78;;;6.36;84.18
43804;BME280;29430;52.924;-2.388;2022-12-29T16:19:33;97640.91;;;6.29;85.03
43804;BME280;29430;52.924;-2.388;2022-12-29T16:24:30;97646.66;;;6.21;85.05
43804;BME280;29430;52.924;-2.388;2022-12-29T16:29:23;97653.50;;;6.12;85.70
43804;BME280;29430;52.924;-2.388;2022-12-29T16:34:28;97667.34;;;6.03;86.21
43804;BME280;29430;52.924;-2.388;2022-12-29T16:39:28;97668.97;;;5.92;86.45
43804;BME280;29430;52.924;-2.388;2022-12-29T16:44:23;97679.88;;;5.86;86.43
43804;BME280;29430;52.924;-2.388;2022-12-29T16:49:16;97685.59;;;5.78;87.04
43804;BME280;29430;52.924;-2.388;2022-12-29T16:54:21;97684.47;;;5.73;87.14
43804;BME280;29430;52.924;-2.388;2022-12-29T16:59:40;97701.88;;;5.71;87.02
43804;BME280;29430;52.924;-2.388;2022-12-29T17:04:34;97702.34;;;5.68;87.49
43804;BME280;29430;52.924;-2.388;2022-12-29T17:09:27;97712.16;;;5.62;87.07
43804;BME280;29430;52.924;-2.388;2022-12-29T17:19:37;97713.81;;;5.51;87.83
43804;BME280;29430;52.924;-2.388;2022-12-29T17:24:29;97724.22;;;5.48;87.74
43804;BME280;29430;52.924;-2.388;2022-12-29T17:34:20;97726.56;;;5.32;87.78
43804;BME280;29430;52.924;-2.388;2022-12-29T17:39:13;97733.94;;;5.25;88.97
43804;BME280;29430;52.924;-2.388;2022-12-29T17:44:06;97752.16;;;5.23;89.36
43804;BME280;29430;52.924;-2.388;2022-12-29T17:48:58;97758.59;;;5.22;89.07
43804;BME280;29430;52.924;-2.388;2022-12-29T17:53:50;97749.34;;;5.18;90.00
43804;BME280;29430;52.924;-2.388;2022-12-29T17:58:49;97760.56;;;5.15;89.90
43804;BME280;29430;52.924;-2.388;2022-12-29T18:03:41;97767.22;;;5.12;89.88
43804;BME280;29430;52.924;-2.388;2022-12-29T18:08:34;97771.78;;;5.12;90.08
43804;BME280;29430;52.924;-2.388;2022-12-29T18:13:29;97782.19;;;5.08;90.09
43804;BME280;29430;52.924;-2.388;2022-12-29T18:18:35;97801.06;;;5.01;89.45
43804;BME280;29430;52.924;-2.388;2022-12-29T18:23:30;97790.19;;;4.96;90.20
43804;BME280;29430;52.924;-2.388;2022-12-29T18:28:22;97803.28;;;4.93;91.04
43804;BME280;29430;52.924;-2.388;2022-12-29T18:33:18;97809.91;;;4.90;91.86
43804;BME280;29430;52.924;-2.388;2022-12-29T18:38:15;97821.13;;;4.87;92.05
43804;BME280;29430;52.924;-2.388;2022-12-29T18:43:08;97828.59;;;4.85;92.87
43804;BME280;29430;52.924;-2.388;2022-12-29T18:48:00;97830.22;;;4.86;92.78
43804;BME280;29430;52.924;-2.388;2022-12-29T18:52:52;97832.09;;;4.86;93.29
43804;BME280;29430;52.924;-2.388;2022-12-29T18:57:50;97842.03;;;4.85;93.26
43804;BME280;29430;52.924;-2.388;2022-12-29T19:02:42;97845.16;;;4.82;93.32
43804;BME280;29430;52.924;-2.388;2022-12-29T19:07:34;97844.19;;;4.76;93.16
43804;BME280;29430;52.924;-2.388;2022-12-29T19:12:26;97859.72;;;4.74;93.62
43804;BME280;29430;52.924;-2.388;2022-12-29T19:17:19;97862.03;;;4.71;93.92
43804;BME280;29430;52.924;-2.388;2022-12-29T19:22:10;97865.16;;;4.68;94.87
43804;BME280;29430;52.924;-2.388;2022-12-29T19:27:02;97862.09;;;4.64;94.81
43804;BME280;29430;52.924;-2.388;2022-12-29T19:31:54;97868.50;;;4.63;94.91
43804;BME280;29430;52.924;-2.388;2022-12-29T19:36:46;97871.19;;;4.63;95.01
43804;BME280;29430;52.924;-2.388;2022-12-29T19:41:37;97865.25;;;4.61;95.02
43804;BME280;29430;52.924;-2.388;2022-12-29T19:46:29;97870.84;;;4.59;95.26
43804;BME280;29430;52.924;-2.388;2022-12-29T19:51:21;97861.34;;;4.57;95.54
43804;BME280;29430;52.924;-2.388;2022-12-29T19:56:13;97858.44;;;4.58;96.27
43804;BME280;29430;52.924;-2.388;2022-12-29T20:01:11;97849.81;;;4.56;95.68
43804;BME280;29430;52.924;-2.388;2022-12-29T20:06:04;97861.81;;;4.54;95.87
43804;BME280;29430;52.924;-2.388;2022-12-29T20:11:05;97867.41;;;4.52;96.03
43804;BME280;29430;52.924;-2.388;2022-12-29T20:15:59;97871.75;;;4.53;96.80
43804;BME280;29430;52.924;-2.388;2022-12-29T20:20:52;97873.63;;;4.53;97.29
43804;BME280;29430;52.924;-2.388;2022-12-29T20:25:43;97873.38;;;4.54;97.93
43804;BME280;29430;52.924;-2.388;2022-12-29T20:30:37;97862.78;;;4.59;98.44
43804;BME280;29430;52.924;-2.388;2022-12-29T20:35:29;97851.59;;;4.62;97.87
43804;BME280;29430;52.924;-2.388;2022-12-29T20:40:20;97853.38;;;4.69;98.06
43804;BME280;29430;52.924;-2.388;2022-12-29T20:45:12;97844.28;;;4.70;98.16
43804;BME280;29430;52.924;-2.388;2022-12-29T20:50:04;97829.34;;;4.74;97.57
43804;BME280;29430;52.924;-2.388;2022-12-29T20:54:57;97841.72;;;4.75;97.32
43804;BME280;29430;52.924;-2.388;2022-12-29T20:59:49;97852.03;;;4.78;97.21
43804;BME280;29430;52.924;-2.388;2022-12-29T21:04:41;97852.84;;;4.78;97.08
43804;BME280;29430;52.924;-2.388;2022-12-29T21:09:53;97857.16;;;4.79;97.05
43804;BME280;29430;52.924;-2.388;2022-12-29T21:14:44;97867.69;;;4.81;96.71
43804;BME280;29430;52.924;-2.388;2022-12-29T21:19:36;97860.53;;;4.75;96.57
43804;BME280;29430;52.924;-2.388;2022-12-29T21:24:28;97866.50;;;4.77;96.97
43804;BME280;29430;52.924;-2.388;2022-12-29T21:29:20;97862.75;;;4.78;96.68
43804;BME280;29430;52.924;-2.388;2022-12-29T21:34:11;97851.66;;;4.74;96.55
43804;BME280;29430;52.924;-2.388;2022-12-29T21:39:03;97827.03;;;4.77;96.10
43804;BME280;29430;52.924;-2.388;2022-12-29T21:43:57;97831.56;;;4.77;96.03
43804;BME280;29430;52.924;-2.388;2022-12-29T21:49:07;97818.25;;;4.70;96.29
43804;BME280;29430;52.924;-2.388;2022-12-29T21:54:00;97812.50;;;4.66;96.50
43804;BME280;29430;52.924;-2.388;2022-12-29T21:59:14;97814.00;;;4.62;96.76
43804;BME280;29430;52.924;-2.388;2022-12-29T22:04:25;97802.69;;;4.60;96.83
43804;BME280;29430;52.924;-2.388;2022-12-29T22:09:35;97799.38;;;4.58;97.19
43804;BME280;29430;52.924;-2.388;2022-12-29T22:14:45;97804.75;;;4.58;97.42
43804;BME280;29430;52.924;-2.388;2022-12-29T22:19:37;97800.44;;;4.57;97.13
43804;BME280;29430;52.924;-2.388;2022-12-29T22:24:30;97790.63;;;4.51;97.69
43804;BME280;29430;52.924;-2.388;2022-12-29T22:29:22;97784.63;;;4.49;98.01
43804;BME280;29430;52.924;-2.388;2022-12-29T22:34:14;97778.69;;;4.47;98.16
43804;BME280;29430;52.924;-2.388;2022-12-29T22:39:06;97784.28;;;4.45;98.95
43804;BME280;29430;52.924;-2.388;2022-12-29T22:43:57;97786.16;;;4.45;99.41
43804;BME280;29430;52.924;-2.388;2022-12-29T22:48:49;97767.13;;;4.46;99.65
43804;BME280;29430;52.924;-2.388;2022-12-29T22:53:41;97753.72;;;4.46;99.53
43804;BME280;29430;52.924;-2.388;2022-12-29T22:58:33;97765.50;;;4.45;99.56
43804;BME280;29430;52.924;-2.388;2022-12-29T23:03:25;97754.16;;;4.43;99.71
43804;BME280;29430;52.924;-2.388;2022-12-29T23:08:17;97753.78;;;4.40;100.00
43804;BME280;29430;52.924;-2.388;2022-12-29T23:13:09;97746.78;;;4.39;100.00
43804;BME280;29430;52.924;-2.388;2022-12-29T23:18:01;97733.38;;;4.39;100.00
43804;BME280;29430;52.924;-2.388;2022-12-29T23:22:52;97723.44;;;4.39;100.00
43804;BME280;29430;52.924;-2.388;2022-12-29T23:27:44;97717.84;;;4.41;100.00
43804;BME280;29430;52.924;-2.388;2022-12-29T23:32:36;97706.88;;;4.42;100.00
43804;BME280;29430;52.924;-2.388;2022-12-29T23:37:27;97711.00;;;4.45;100.00
43804;BME280;29430;52.924;-2.388;2022-12-29T23:42:19;97695.25;;;4.48;100.00
43804;BME280;29430;52.924;-2.388;2022-12-29T23:47:11;97687.53;;;4.52;99.71
43804;BME280;29430;52.924;-2.388;2022-12-29T23:52:04;97674.13;;;4.52;99.33
43804;BME280;29430;52.924;-2.388;2022-12-29T23:56:55;97668.16;;;4.50;99.93
